• Join FlightAware (Why Join?)
  • Login
  • US Flag GB Flag 
19:49 EDT


 

Airport Tracker/Info


-or-


 

Live Flight TrackerFlight Track Log ✈ N818GM ✈ 16-Jun-2013 ✈ KAPF - KTLH

Flight Track Log - Related Links

Times and Time Zones

All times are in EDT time to prevent confusion due to time zone crossing. See the N818GM flight status page for this flight to view local times or setup timezone preferences in your user account.

Time Position Orientation Groundspeed Altitude Reporting Facility
EDT Latitude Longitude Course Direction KTS MPH feet Rate Location/Type
07:20 26.4254 -81.8000 North  Level FlightAware Approximate
07:21 26.4729 -81.8047 355° North  Level FlightAware Approximate
07:22 26.5205 -81.8093 355° North  Level FlightAware Approximate
07:23 26.5681 -81.8140 355° North  Level FlightAware Approximate
07:24 26.6156 -81.8187 355° North  Level FlightAware Approximate
07:25 26.6632 -81.8234 355° North  Level FlightAware Approximate
07:26 26.7107 -81.8281 355° North  Level FlightAware Approximate
07:27 26.7583 -81.8328 355° North  Level FlightAware Approximate
07:28 26.8059 -81.8375 355° North  Level FlightAware Approximate
07:28 26.8325 -81.8450 355° North 175 201 6,000  Level Miami Center
07:29 26.8534 -81.8422 355° North  Level FlightAware Approximate
07:29 26.8781 -81.8539 350° North 175 201 6,000  Level Miami Center
07:30 26.9010 -81.8469 355° North  Level FlightAware Approximate
07:30 26.9258 -81.8631 350° North 180 207 6,000  Level Miami Center
07:31 26.9485 -81.8516 355° North  Level FlightAware Approximate
07:31 26.9758 -81.8697 353° North 180 207 6,000  Level Miami Center
07:32 26.9961 -81.8564 355° North  Level FlightAware Approximate
07:32 27.0236 -81.8764 353° North 180 207 6,000  Level Miami Center
07:33 27.0437 -81.8611 355° North  Level FlightAware Approximate
07:33 27.0733 -81.8833 353° North 180 207 6,000  Level Miami Center
07:34 27.0912 -81.8658 355° North  Level FlightAware Approximate
07:34 27.1233 -81.8900 353° North 180 207 6,000  Level Miami Center
07:35 27.1711 -81.8969 353° North 180 207 6,000  Level Miami Center
07:36 27.2189 -81.9036 353° North 180 207 6,000  Level Miami Center
07:37 27.2664 -81.9103 353° North 180 207 6,000  Level Miami Center
07:38 27.3142 -81.9172 353° North 180 207 6,000  Level Miami Center
07:39 27.3619 -81.9239 353° North 180 207 6,000  Level Miami Center
07:40 27.4097 -81.9306 353° North 180 207 6,000  Level Miami Center
07:41 27.4575 -81.9375 353° North 180 207 6,000  Level Miami Center
07:42 27.5033 -81.9442 353° North 175 201 6,000  Level Miami Center
07:43 27.5489 -81.9486 355° North 170 196 6,000  Level Miami Center
07:44 27.5967 -81.9553 353° North 170 196 6,000  Level Miami Center
07:45 27.6422 -81.9644 350° North 170 196 6,000  Level Miami Center
07:46 27.6881 -81.9711 353° North 170 196 6,000  Level Miami Center
07:47 27.7358 -81.9778 353° North 170 196 6,000  Level Miami Center
07:48 27.7878 -81.9850 353° North 170 196 6,000  Level Miami Center
07:49 27.8311 -81.9939 350° North 175 201 6,100  Climbing Miami Center
07:50 27.8833 -82.0000 354° North 174 200 6,000 -60 Descending Tampa TRACON
07:51 27.9167 -82.0000 360° North 173 199 6,000  Level Tampa TRACON
07:52 27.9667 -82.0167 344° North 174 200 6,000  Level Tampa TRACON
07:53 28.0167 -82.0333 344° North 177 204 6,000  Level Tampa TRACON
07:54 28.0500 -82.0500 336° Northwest 173 199 6,100  Climbing Tampa TRACON
07:55 28.1000 -82.0833 330° Northwest 172 198 6,100  Level Tampa TRACON
07:56 28.1333 -82.1167 319° Northwest 171 197 6,100  Level Tampa TRACON
07:57 28.1833 -82.1333 344° North 170 196 6,100  Level Tampa TRACON
07:58 28.2167 -82.1667 319° Northwest 174 200 6,100  Level Tampa TRACON
07:59 28.2667 -82.1833 344° North 175 201 6,100  Level Tampa TRACON
08:00 28.3000 -82.2167 319° Northwest 175 201 6,100  Level Tampa TRACON
08:01 28.3500 -82.2500 330° Northwest 176 203 6,100  Level Tampa TRACON
08:02 28.3833 -82.2667 336° Northwest 176 203 6,100  Level Tampa TRACON
08:04 28.4783 -82.3281 330° Northwest 176 203 6,100  Level Jacksonville Center
08:05 28.5203 -82.3561 330° Northwest 174 200 6,100  Level Jacksonville Center
08:06 28.5558 -82.3797 330° Northwest 174 200 6,100  Level Jacksonville Center
08:07 28.6019 -82.4103 330° Northwest 172 198 6,100  Level Jacksonville Center
08:08 28.6436 -82.4361 331° Northwest 173 199 6,100  Level Jacksonville Center
08:09 28.6897 -82.4642 332° Northwest 175 201 6,100  Level Jacksonville Center
08:10 28.7317 -82.4925 329° Northwest 175 201 6,100  Level Jacksonville Center
08:11 28.7650 -82.5256 319° Northwest 169 194 6,100  Level Jacksonville Center
08:12 28.7964 -82.5561 320° Northwest 173 199 6,100  Level Jacksonville Center
08:13 28.8383 -82.6033 315° West 171 197 6,100  Level Jacksonville Center
08:14 28.8675 -82.6342 317° Northwest 168 193 6,100  Level Jacksonville Center
08:15 28.8947 -82.6650 315° West 168 193 6,100  Level Jacksonville Center
08:16 28.9303 -82.7028 317° Northwest 168 193 6,100  Level Jacksonville Center
08:17 28.9639 -82.7408 315° West 168 193 6,100  Level Jacksonville Center
08:18 28.9972 -82.7786 315° West 168 193 6,100  Level Jacksonville Center
08:19 29.0328 -82.8167 317° Northwest 168 193 6,100  Level Jacksonville Center
08:20 29.0661 -82.8522 317° Northwest 168 193 6,100  Level Jacksonville Center
08:21 29.0994 -82.8925 313° West 168 193 6,100  Level Jacksonville Center
08:22 29.1328 -82.9306 315° West 168 193 6,100  Level Jacksonville Center
08:23 29.1664 -82.9664 317° Northwest 168 193 6,100  Level Jacksonville Center
08:24 29.2017 -83.0044 317° Northwest 168 193 6,100  Level Jacksonville Center
08:25 29.2350 -83.0425 315° West 168 193 6,100  Level Jacksonville Center
08:26 29.2706 -83.0806 317° Northwest 168 193 6,100  Level Jacksonville Center
08:27 29.3039 -83.1164 317° Northwest 168 193 6,100  Level Jacksonville Center
08:28 29.3372 -83.1547 315° West 168 193 6,100  Level Jacksonville Center
08:29 29.3725 -83.1953 315° West 168 193 6,100  Level Jacksonville Center
08:30 29.4081 -83.2333 317° Northwest 173 199 6,100  Level Jacksonville Center
08:31 29.4414 -83.2742 313° West 173 199 6,100  Level Jacksonville Center
08:32 29.4767 -83.3100 319° Northwest 173 199 6,100  Level Jacksonville Center
08:33 29.5119 -83.3483 317° Northwest 173 199 6,100  Level Jacksonville Center
08:34 29.5453 -83.3892 313° West 173 199 6,100  Level Jacksonville Center
08:35 29.5806 -83.4300 315° West 173 199 6,100  Level Jacksonville Center
08:36 29.6139 -83.4658 317° Northwest 173 199 6,100  Level Jacksonville Center
08:37 29.6492 -83.5044 316° Northwest 173 199 6,100  Level Jacksonville Center
08:38 29.6825 -83.5428 315° West 173 199 6,100  Level Jacksonville Center
08:39 29.7178 -83.5814 316° Northwest 173 199 6,100  Level Jacksonville Center
08:40 29.7508 -83.6197 315° West 173 199 6,100  Level Jacksonville Center
08:41 29.7861 -83.6583 316° Northwest 173 199 6,100  Level Jacksonville Center
08:42 29.8192 -83.6944 317° Northwest 173 199 6,100  Level Jacksonville Center
08:43 29.8525 -83.7331 315° West 173 199 6,100  Level Jacksonville Center
08:44 29.8878 -83.7717 317° Northwest 173 199 6,100  Level Jacksonville Center
08:45 29.9208 -83.8103 315° West 173 199 6,100  Level Jacksonville Center
08:46 29.9519 -83.8467 315° West 173 199 6,100 -300 Level Jacksonville Center
08:47 29.9869 -83.8878 315° West 173 199 5,500 -600 Descending Jacksonville Center
08:48 30.0244 -83.9264 318° Northwest 173 199 5,000 -540 Descending Jacksonville Center
08:49 30.0594 -83.9678 314° West 173 199 4,500 -540 Descending Jacksonville Center
08:50 30.0967 -84.0114 315° West 173 199 4,000 -540 Descending Jacksonville Center
08:52 30.1474 -84.0660 315° West  Level FlightAware Approximate
08:59 30.3766 -84.3416 313° West  Level FlightAware Approximate
09:00 30.3833 -84.3500 313° West  Level FlightAware Approximate
09:01 30.3967 -84.3509 313° West  Level Estimated
09:02 30.3967 -84.3509 313° West  Level Estimated
09:03 30.3967 -84.3509 313° West  Level Estimated
09:04 30.3967 -84.3509 313° West  Level Estimated
09:05 30.3967 -84.3509 313° West  Level Estimated
09:06 30.3967 -84.3509 313° West  Level Estimated
09:07 30.3967 -84.3509 313° West  Level Estimated
09:08 30.3967 -84.3509 313° West  Level Estimated
09:09 30.3967 -84.3509 313° West  Level Estimated